createdAt,value
2023-02-11T00:03:58.572Z,10.30
2023-02-11T00:09:01.673Z,19.23
2023-02-11T00:14:09.235Z,11.07
2023-02-11T00:19:11.976Z,7.03
2023-02-11T00:24:14.764Z,7.53
2023-02-11T00:29:18.851Z,14.17
2023-02-11T00:34:25.366Z,11.33
2023-02-11T00:39:28.430Z,14.57
2023-02-11T00:44:33.358Z,9.27
2023-02-11T00:49:36.950Z,9.13
2023-02-11T00:54:39.799Z,12.17
2023-02-11T00:59:44.429Z,16.60
2023-02-11T01:04:47.221Z,17.73
2023-02-11T01:09:50.112Z,12.40
2023-02-11T01:14:54.254Z,13.30
2023-02-11T01:19:57.096Z,11.80
2023-02-11T01:24:59.886Z,16.30
2023-02-11T01:30:06.470Z,18.90
2023-02-11T01:35:09.477Z,10.37
2023-02-11T01:40:14.748Z,15.63
2023-02-11T01:45:53.997Z,15.50
2023-02-11T01:51:02.200Z,10.60
2023-02-11T01:56:23.892Z,19.60
2023-02-11T02:01:28.000Z,17.57
2023-02-11T02:06:36.076Z,12.90
2023-02-11T02:11:38.988Z,16.57
2023-02-11T02:16:41.863Z,21.20
2023-02-11T02:22:24.282Z,12.77
2023-02-11T02:27:43.033Z,16.37
2023-02-11T02:33:22.484Z,15.70
2023-02-11T02:38:28.964Z,14.00
2023-02-11T02:43:32.088Z,17.13
2023-02-11T02:48:36.524Z,19.70
2023-02-11T02:53:50.106Z,20.50
2023-02-11T02:59:15.141Z,21.20
2023-02-11T03:04:23.289Z,20.43
2023-02-11T03:09:30.780Z,21.03
2023-02-11T03:14:34.046Z,21.47
2023-02-11T03:19:39.795Z,20.20
2023-02-11T03:24:43.128Z,20.00
2023-02-11T03:29:55.864Z,20.83
2023-02-11T03:35:04.313Z,19.67
2023-02-11T03:40:10.164Z,16.97
2023-02-11T03:45:16.862Z,29.17
2023-02-11T03:50:22.555Z,16.00
2023-02-11T03:55:27.089Z,21.53
2023-02-11T04:00:31.504Z,20.37
2023-02-11T04:05:35.908Z,18.80
2023-02-11T04:10:38.696Z,15.07
2023-02-11T04:15:41.508Z,21.50
2023-02-11T04:20:45.635Z,17.57
2023-02-11T04:25:48.985Z,21.73
2023-02-11T04:30:52.374Z,18.70
2023-02-11T04:35:56.585Z,33.30
2023-02-11T04:41:00.560Z,16.97
2023-02-11T04:46:03.408Z,16.43
2023-02-11T04:51:07.726Z,19.93
2023-02-11T04:56:10.616Z,22.80
2023-02-11T05:01:16.233Z,26.77
2023-02-11T05:06:20.529Z,21.07
2023-02-11T05:11:25.396Z,27.97
2023-02-11T05:16:28.357Z,22.53
2023-02-11T05:21:34.214Z,21.90
2023-02-11T05:26:36.942Z,22.90
2023-02-11T05:31:39.728Z,24.80
2023-02-11T05:36:45.084Z,24.90
2023-02-11T05:41:47.863Z,23.30
2023-02-11T05:46:50.658Z,30.07
2023-02-11T05:51:54.793Z,18.97
2023-02-11T05:56:57.529Z,30.10
2023-02-11T06:02:00.240Z,24.17
2023-02-11T06:07:04.725Z,38.00
2023-02-11T06:12:07.882Z,26.37
2023-02-11T06:17:10.693Z,31.27
2023-02-11T06:22:17.217Z,27.80
2023-02-11T06:27:20.803Z,24.00
2023-02-11T06:32:43.981Z,23.30
2023-02-11T06:37:54.027Z,23.93
2023-02-11T06:42:56.941Z,21.87
2023-02-11T06:48:00.103Z,26.33
2023-02-11T06:53:04.300Z,28.93
2023-02-11T06:58:07.140Z,22.50
2023-02-11T07:03:10.017Z,30.63
2023-02-11T07:08:14.180Z,27.10
2023-02-11T07:13:17.106Z,25.13
2023-02-11T07:18:19.954Z,40.47
2023-02-11T07:23:24.122Z,27.93
2023-02-11T07:28:27.017Z,28.57
2023-02-11T07:33:29.924Z,37.77
2023-02-11T07:38:34.964Z,35.53
2023-02-11T07:43:38.687Z,31.20
2023-02-11T07:48:41.505Z,27.33
2023-02-11T07:53:47.885Z,30.73
2023-02-11T07:58:51.318Z,25.07
2023-02-11T08:03:54.899Z,24.40
2023-02-11T08:08:59.278Z,22.80
2023-02-11T08:14:02.119Z,17.67
2023-02-11T08:19:07.063Z,29.13
2023-02-11T08:24:11.485Z,24.63
2023-02-11T08:29:16.114Z,20.90
2023-02-11T08:34:19.484Z,22.10
2023-02-11T08:39:23.971Z,21.17
2023-02-11T08:44:26.866Z,20.63
2023-02-11T08:49:30.624Z,18.30
2023-02-11T08:54:34.828Z,22.47
2023-02-11T08:59:40.054Z,17.93
2023-02-11T09:04:42.858Z,19.37
2023-02-11T09:09:47.072Z,16.50
2023-02-11T09:14:49.911Z,19.50
2023-02-11T09:19:52.832Z,20.80
2023-02-11T09:24:57.142Z,18.17
2023-02-11T09:30:01.427Z,22.97
2023-02-11T09:35:04.405Z,18.07
2023-02-11T09:40:09.830Z,16.73
2023-02-11T09:45:18.810Z,12.27
2023-02-11T09:50:25.266Z,11.77
2023-02-11T09:55:31.681Z,11.60
2023-02-11T10:00:38.914Z,18.27
2023-02-11T10:05:59.668Z,15.17
2023-02-11T10:11:07.090Z,16.77
2023-02-11T10:16:19.100Z,12.57
2023-02-11T10:21:30.110Z,12.70
2023-02-11T10:26:34.419Z,14.23
2023-02-11T10:31:38.929Z,15.97
2023-02-11T10:36:43.300Z,12.43
2023-02-11T10:41:48.974Z,14.37
2023-02-11T10:46:52.198Z,11.07
2023-02-11T10:52:14.038Z,9.37
2023-02-11T10:57:19.895Z,17.50
2023-02-11T11:02:24.818Z,8.13
2023-02-11T11:07:29.432Z,7.53
2023-02-11T11:12:40.311Z,8.23
2023-02-11T11:17:43.902Z,12.33
2023-02-11T11:22:47.261Z,11.13
2023-02-11T11:27:52.195Z,6.57
2023-02-11T11:32:55.125Z,7.50
2023-02-11T11:38:01.775Z,9.27
2023-02-11T11:43:23.135Z,6.23
2023-02-11T11:48:29.316Z,12.33
2023-02-11T11:53:36.982Z,6.67
2023-02-11T11:58:41.230Z,8.10
2023-02-11T12:04:15.352Z,7.97
2023-02-11T12:09:25.744Z,5.30
2023-02-11T12:14:36.724Z,6.33
2023-02-11T12:19:56.309Z,5.57
2023-02-11T12:25:11.045Z,15.57
2023-02-11T12:30:24.656Z,5.90
2023-02-11T12:35:32.572Z,5.00
2023-02-11T12:40:41.418Z,9.50
2023-02-11T12:46:34.902Z,8.10
2023-02-11T12:51:51.113Z,4.03
2023-02-11T12:56:59.238Z,6.13
2023-02-11T13:02:06.880Z,7.00
2023-02-11T13:07:15.699Z,7.17
2023-02-11T13:12:36.093Z,5.23
2023-02-11T13:17:42.067Z,6.83
2023-02-11T13:22:51.825Z,6.40
2023-02-11T13:27:58.722Z,5.47
2023-02-11T13:33:21.219Z,5.67
2023-02-11T13:38:27.596Z,4.83
2023-02-11T13:43:31.791Z,10.27
2023-02-11T13:48:36.162Z,6.93
2023-02-11T13:53:48.839Z,7.13
2023-02-11T13:58:52.616Z,5.97
2023-02-11T14:04:38.438Z,4.30
2023-02-11T14:09:42.729Z,11.07
2023-02-11T14:15:19.760Z,11.70
2023-02-11T14:20:37.610Z,10.50
2023-02-11T14:25:43.500Z,4.20
2023-02-11T14:30:55.515Z,4.77
2023-02-11T14:36:06.725Z,6.40
2023-02-11T14:41:15.223Z,8.23
2023-02-11T14:46:19.344Z,15.50
2023-02-11T14:51:24.493Z,4.07
2023-02-11T14:56:31.475Z,3.97
2023-02-11T15:01:36.115Z,7.03
2023-02-11T15:06:40.852Z,9.70
2023-02-11T15:11:46.638Z,4.97
2023-02-11T15:16:50.749Z,4.40
2023-02-11T15:21:54.669Z,9.93
2023-02-11T15:27:00.705Z,14.53
2023-02-11T15:32:08.843Z,4.83
2023-02-11T15:37:14.586Z,11.67
2023-02-11T15:42:26.959Z,4.43
2023-02-11T15:47:29.980Z,7.03
2023-02-11T15:52:33.060Z,9.47
2023-02-11T15:57:37.333Z,4.33
2023-02-11T16:02:45.172Z,11.83
2023-02-11T16:07:50.404Z,8.37
2023-02-11T16:12:59.350Z,7.47
2023-02-11T16:18:02.700Z,5.90
2023-02-11T16:23:06.094Z,6.43
2023-02-11T16:28:15.162Z,4.13
2023-02-11T16:33:18.143Z,5.07
2023-02-11T16:38:21.106Z,6.27
2023-02-11T16:43:25.425Z,6.37
2023-02-11T16:48:28.343Z,9.33
2023-02-11T16:53:31.508Z,7.47
2023-02-11T16:58:35.703Z,7.53
2023-02-11T17:03:40.502Z,13.30
2023-02-11T17:08:44.387Z,12.20
2023-02-11T17:13:48.671Z,8.77
2023-02-11T17:18:52.013Z,16.10
2023-02-11T17:23:54.806Z,9.07
2023-02-11T17:28:58.980Z,5.90
2023-02-11T17:34:01.850Z,14.07
2023-02-11T17:39:08.230Z,5.97
2023-02-11T17:44:14.104Z,11.87
2023-02-11T17:49:17.026Z,9.03
2023-02-11T17:54:20.617Z,10.73
2023-02-11T17:59:25.953Z,8.43
2023-02-11T18:04:29.142Z,9.33
2023-02-11T18:09:31.983Z,14.57
2023-02-11T18:14:36.341Z,15.17
2023-02-11T18:19:39.289Z,14.13
2023-02-11T18:24:44.745Z,9.13
2023-02-11T18:29:49.438Z,9.67
2023-02-11T18:34:52.559Z,9.30
2023-02-11T18:39:55.507Z,15.80
2023-02-11T18:44:59.736Z,10.70
2023-02-11T18:50:02.586Z,10.17
2023-02-11T18:55:05.836Z,11.00
2023-02-11T19:00:11.791Z,13.10
2023-02-11T19:05:15.632Z,8.90
2023-02-11T19:10:18.785Z,12.03
2023-02-11T19:15:23.118Z,11.67
2023-02-11T19:20:25.968Z,13.23
2023-02-11T19:25:29.175Z,13.93
2023-02-11T19:30:33.486Z,9.70
2023-02-11T19:35:36.520Z,10.77
2023-02-11T19:40:39.307Z,8.40
2023-02-11T19:45:43.449Z,10.13
2023-02-11T19:50:46.288Z,11.23
2023-02-11T19:55:49.778Z,11.03
2023-02-11T20:00:54.195Z,13.00
2023-02-11T20:05:57.130Z,15.07
2023-02-11T20:11:05.942Z,15.93
2023-02-11T20:16:12.309Z,11.23
2023-02-11T20:21:17.642Z,12.50
2023-02-11T20:26:22.976Z,13.03
2023-02-11T20:31:27.376Z,13.50
2023-02-11T20:36:32.336Z,11.47
2023-02-11T20:41:36.702Z,9.37
2023-02-11T20:46:42.295Z,13.43
2023-02-11T20:51:45.168Z,9.33
2023-02-11T20:56:50.660Z,8.20
2023-02-11T21:01:56.935Z,11.23
2023-02-11T21:07:01.480Z,11.97
2023-02-11T21:12:05.389Z,11.57
2023-02-11T21:17:09.558Z,16.20
2023-02-11T21:22:12.402Z,14.57
2023-02-11T21:27:16.115Z,13.30
2023-02-11T21:32:20.353Z,10.40
2023-02-11T21:37:25.281Z,9.23
2023-02-11T21:42:28.093Z,13.80
2023-02-11T21:47:32.794Z,8.03
2023-02-11T21:52:35.611Z,11.20
2023-02-11T21:57:38.523Z,10.57
2023-02-11T22:02:42.999Z,8.07
2023-02-11T22:07:45.918Z,12.90
2023-02-11T22:12:48.744Z,11.03
2023-02-11T22:17:52.936Z,10.63
2023-02-11T22:22:55.708Z,10.43
2023-02-11T22:27:58.514Z,6.57
2023-02-11T22:33:04.089Z,11.47
2023-02-11T22:38:06.914Z,10.17
2023-02-11T22:43:09.790Z,9.77
2023-02-11T22:48:14.027Z,10.53
2023-02-11T22:53:16.864Z,12.40
2023-02-11T22:58:19.842Z,13.33
2023-02-11T23:03:24.015Z,11.27
2023-02-11T23:08:28.069Z,13.93
2023-02-11T23:13:30.804Z,13.90
2023-02-11T23:18:35.440Z,17.70
2023-02-11T23:23:38.212Z,12.47
2023-02-11T23:28:41.333Z,14.20
2023-02-11T23:33:45.963Z,16.63
2023-02-11T23:38:49.523Z,13.80
2023-02-11T23:43:53.180Z,15.90
2023-02-11T23:48:57.574Z,13.60
2023-02-11T23:54:00.443Z,15.30
2023-02-11T23:59:03.282Z,14.77
